createdAt,value
2022-11-26T00:00:50.779Z,74.78
2022-11-26T00:03:19.104Z,74.84
2022-11-26T00:05:49.430Z,74.80
2022-11-26T00:08:20.944Z,75.10
2022-11-26T00:10:50.923Z,74.95
2022-11-26T00:13:21.347Z,75.35
2022-11-26T00:15:51.068Z,75.28
2022-11-26T00:18:19.767Z,75.20
2022-11-26T00:20:51.445Z,74.94
2022-11-26T00:23:21.497Z,74.40
2022-11-26T00:25:51.764Z,74.68
2022-11-26T00:28:29.588Z,76.46
2022-11-26T00:31:00.591Z,76.14
2022-11-26T00:33:29.034Z,75.75
2022-11-26T00:35:59.208Z,75.51
2022-11-26T00:38:27.298Z,75.02
2022-11-26T00:40:54.889Z,74.37
2022-11-26T00:43:22.536Z,73.92
2022-11-26T00:45:50.517Z,75.05
2022-11-26T00:48:19.501Z,74.98
2022-11-26T00:50:49.584Z,74.45
2022-11-26T00:53:20.095Z,74.51
2022-11-26T00:55:49.929Z,75.14
2022-11-26T00:58:24.911Z,75.06
2022-11-26T01:01:00.794Z,73.96
2022-11-26T01:03:30.353Z,73.87
2022-11-26T01:05:59.701Z,73.87
2022-11-26T01:08:31.097Z,74.42
2022-11-26T01:10:59.327Z,74.22
2022-11-26T01:13:27.750Z,73.71
2022-11-26T01:15:55.940Z,74.70
2022-11-26T01:18:24.271Z,74.75
2022-11-26T01:20:53.174Z,74.99
2022-11-26T01:23:21.153Z,75.30
2022-11-26T01:25:49.154Z,75.15
2022-11-26T01:28:18.663Z,74.48
2022-11-26T01:30:46.622Z,74.90
2022-11-26T01:33:14.184Z,75.16
2022-11-26T01:35:41.767Z,74.67
2022-11-26T01:38:13.846Z,75.74
2022-11-26T01:40:56.140Z,75.67
2022-11-26T01:43:27.847Z,74.75
2022-11-26T01:45:56.055Z,74.60
2022-11-26T01:48:27.347Z,74.58
2022-11-26T01:51:04.288Z,75.34
2022-11-26T01:53:43.068Z,75.15
2022-11-26T01:56:31.760Z,74.23
2022-11-26T01:59:07.691Z,73.88
2022-11-26T02:01:35.827Z,74.52
2022-11-26T02:04:16.583Z,75.52
2022-11-26T02:06:45.919Z,74.69
2022-11-26T02:09:15.181Z,75.14
2022-11-26T02:11:43.386Z,75.02
2022-11-26T02:14:16.926Z,75.20
2022-11-26T02:16:57.742Z,75.89
2022-11-26T02:19:55.810Z,75.05
2022-11-26T02:22:43.383Z,74.79
2022-11-26T02:25:20.480Z,76.29
2022-11-26T02:28:21.123Z,76.38
2022-11-26T02:30:57.375Z,75.90
2022-11-26T02:33:30.283Z,75.22
2022-11-26T02:36:02.675Z,75.27
2022-11-26T02:38:31.123Z,76.01
2022-11-26T02:40:58.659Z,75.92
2022-11-26T02:43:27.490Z,75.86
2022-11-26T02:46:00.707Z,76.39
2022-11-26T02:48:32.809Z,76.05
2022-11-26T02:51:04.848Z,75.81
2022-11-26T02:53:34.904Z,75.68
2022-11-26T02:56:06.516Z,75.63
2022-11-26T02:58:35.392Z,75.59
2022-11-26T03:01:10.088Z,76.36
2022-11-26T03:03:41.582Z,75.55
2022-11-26T03:06:11.741Z,75.66
2022-11-26T03:08:40.097Z,75.98
2022-11-26T03:11:07.905Z,75.87
2022-11-26T03:13:35.480Z,76.29
2022-11-26T03:16:05.316Z,76.29
2022-11-26T03:18:32.939Z,75.84
2022-11-26T03:21:01.251Z,75.71
2022-11-26T03:23:28.833Z,75.70
2022-11-26T03:25:56.372Z,75.86
2022-11-26T03:28:23.905Z,75.69
2022-11-26T03:30:51.598Z,76.22
2022-11-26T03:33:20.691Z,75.66
2022-11-26T03:35:49.182Z,75.96
2022-11-26T03:38:18.039Z,76.62
2022-11-26T03:40:45.790Z,75.93
2022-11-26T03:43:13.292Z,75.62
2022-11-26T03:45:40.890Z,75.51
2022-11-26T03:48:08.450Z,75.26
2022-11-26T03:50:37.527Z,74.99
2022-11-26T03:53:05.074Z,75.64
2022-11-26T03:55:32.604Z,76.28
2022-11-26T03:58:00.102Z,75.84
2022-11-26T04:00:27.778Z,75.34
2022-11-26T04:02:55.383Z,75.09
2022-11-26T04:05:22.976Z,75.48
2022-11-26T04:07:52.005Z,75.60
2022-11-26T04:10:19.788Z,76.21
2022-11-26T04:12:47.309Z,76.03
2022-11-26T04:15:14.906Z,76.16
2022-11-26T04:17:42.425Z,76.32
2022-11-26T04:20:10.633Z,76.17
2022-11-26T04:22:38.160Z,76.43
2022-11-26T04:25:07.739Z,76.39
2022-11-26T04:27:35.274Z,76.05
2022-11-26T04:30:02.812Z,76.63
2022-11-26T04:32:30.262Z,77.11
2022-11-26T04:34:57.808Z,76.98
2022-11-26T04:37:25.340Z,77.16
2022-11-26T04:39:52.854Z,77.07
2022-11-26T04:42:21.684Z,76.92
2022-11-26T04:44:49.177Z,77.20
2022-11-26T04:47:16.832Z,76.98
2022-11-26T04:49:44.455Z,76.94
2022-11-26T04:52:12.116Z,77.23
2022-11-26T04:54:39.816Z,77.01
2022-11-26T04:57:07.582Z,76.91
2022-11-26T04:59:36.399Z,77.39
2022-11-26T05:02:04.024Z,77.45
2022-11-26T05:04:31.540Z,76.84
2022-11-26T05:06:59.039Z,77.07
2022-11-26T05:09:26.643Z,77.55
2022-11-26T05:11:54.219Z,77.75
2022-11-26T05:14:21.796Z,77.27
2022-11-26T05:16:50.698Z,77.65
2022-11-26T05:19:18.315Z,77.60
2022-11-26T05:21:45.873Z,77.40
2022-11-26T05:24:13.406Z,77.55
2022-11-26T05:26:40.969Z,77.46
2022-11-26T05:29:08.532Z,77.27
2022-11-26T05:31:36.086Z,77.61
2022-11-26T05:34:05.175Z,77.66
2022-11-26T05:36:32.673Z,77.66
2022-11-26T05:39:00.204Z,77.39
2022-11-26T05:41:27.691Z,77.34
2022-11-26T05:43:55.218Z,77.06
2022-11-26T05:46:22.915Z,77.43
2022-11-26T05:48:50.396Z,78.00
2022-11-26T05:51:19.316Z,77.83
2022-11-26T05:53:46.812Z,77.56
2022-11-26T05:56:14.403Z,77.75
2022-11-26T05:58:43.338Z,77.73
2022-11-26T06:01:11.471Z,77.59
2022-11-26T06:03:39.578Z,77.65
2022-11-26T06:06:07.626Z,77.90
2022-11-26T06:08:36.489Z,77.92
2022-11-26T06:11:04.012Z,77.37
2022-11-26T06:13:31.586Z,77.10
2022-11-26T06:15:59.569Z,76.92
2022-11-26T06:18:27.099Z,77.41
2022-11-26T06:20:54.600Z,77.79
2022-11-26T06:23:22.104Z,78.00
2022-11-26T06:25:51.017Z,78.59
2022-11-26T06:28:18.546Z,78.26
2022-11-26T06:30:46.587Z,77.72
2022-11-26T06:33:14.460Z,78.21
2022-11-26T06:35:41.954Z,77.92
2022-11-26T06:38:09.850Z,77.59
2022-11-26T06:40:37.390Z,77.20
2022-11-26T06:43:06.228Z,77.48
2022-11-26T06:45:35.730Z,77.32
2022-11-26T06:48:03.376Z,77.75
2022-11-26T06:50:30.906Z,77.89
2022-11-26T06:52:58.434Z,77.82
2022-11-26T06:55:26.009Z,78.24
2022-11-26T06:57:53.536Z,77.91
2022-11-26T07:00:23.049Z,77.58
2022-11-26T07:02:50.639Z,77.87
2022-11-26T07:05:18.457Z,77.89
2022-11-26T07:07:46.069Z,77.40
2022-11-26T07:10:13.664Z,77.16
2022-11-26T07:12:41.156Z,77.16
2022-11-26T07:15:10.047Z,77.52
2022-11-26T07:17:38.966Z,77.69
2022-11-26T07:20:08.047Z,77.92
2022-11-26T07:22:35.712Z,77.92
2022-11-26T07:25:04.494Z,78.12
2022-11-26T07:27:33.594Z,78.34
2022-11-26T07:30:01.156Z,78.13
2022-11-26T07:32:30.656Z,78.53
2022-11-26T07:35:00.478Z,78.24
2022-11-26T07:37:27.991Z,78.20
2022-11-26T07:39:55.768Z,78.15
2022-11-26T07:42:23.329Z,78.21
2022-11-26T07:44:50.937Z,78.88
2022-11-26T07:47:18.468Z,78.76
2022-11-26T07:49:46.046Z,78.28
2022-11-26T07:52:14.990Z,78.37
2022-11-26T07:54:42.901Z,78.70
2022-11-26T07:57:11.247Z,78.57
2022-11-26T07:59:38.740Z,78.68
2022-11-26T08:02:06.301Z,78.50
2022-11-26T08:04:33.838Z,78.60
2022-11-26T08:07:23.249Z,78.38
2022-11-26T08:09:53.483Z,77.86
2022-11-26T08:12:21.070Z,77.99
2022-11-26T08:14:48.609Z,78.24
2022-11-26T08:17:16.128Z,77.72
2022-11-26T08:19:43.682Z,77.21
2022-11-26T08:22:11.261Z,76.97
2022-11-26T08:24:40.877Z,77.39
2022-11-26T08:27:08.590Z,77.54
2022-11-26T08:29:37.194Z,77.85
2022-11-26T08:32:05.192Z,78.24
2022-11-26T08:34:33.008Z,77.64
2022-11-26T08:37:00.719Z,77.69
2022-11-26T08:39:28.307Z,77.28
2022-11-26T08:41:57.208Z,77.84
2022-11-26T08:44:24.837Z,78.42
2022-11-26T08:46:52.616Z,78.03
2022-11-26T08:49:20.378Z,77.63
2022-11-26T08:51:48.048Z,77.25
2022-11-26T08:54:15.592Z,76.99
2022-11-26T08:56:43.184Z,76.49
2022-11-26T08:59:12.075Z,77.12
2022-11-26T09:01:39.960Z,77.24
2022-11-26T09:04:07.607Z,76.37
2022-11-26T09:06:37.595Z,76.74
2022-11-26T09:09:17.269Z,76.02
2022-11-26T09:11:48.140Z,75.76
2022-11-26T09:14:19.350Z,76.05
2022-11-26T09:16:47.638Z,76.38
2022-11-26T09:19:16.055Z,75.86
2022-11-26T09:21:44.119Z,76.38
2022-11-26T09:24:11.849Z,76.81
2022-11-26T09:26:39.698Z,75.71
2022-11-26T09:29:07.377Z,75.33
2022-11-26T09:31:42.752Z,74.68
2022-11-26T09:34:22.820Z,75.05
2022-11-26T09:36:50.408Z,75.36
2022-11-26T09:39:18.526Z,75.40
2022-11-26T09:41:51.160Z,75.38
2022-11-26T09:44:26.298Z,74.54
2022-11-26T09:47:12.867Z,74.99
2022-11-26T09:49:50.014Z,75.31
2022-11-26T09:52:21.073Z,75.55
2022-11-26T09:54:51.312Z,76.12
2022-11-26T09:57:24.129Z,76.75
2022-11-26T09:59:52.656Z,77.09
2022-11-26T10:02:22.017Z,76.12
2022-11-26T10:04:49.875Z,76.56
2022-11-26T10:07:40.671Z,76.06
2022-11-26T10:10:17.432Z,76.84
2022-11-26T10:13:18.022Z,75.63
2022-11-26T10:15:57.424Z,75.52
2022-11-26T10:18:37.119Z,75.58
2022-11-26T10:21:32.425Z,75.65
2022-11-26T10:24:15.735Z,74.86
2022-11-26T10:26:44.523Z,74.97
2022-11-26T10:29:22.391Z,74.43
2022-11-26T10:31:51.857Z,75.12
2022-11-26T10:34:29.312Z,75.40
2022-11-26T10:36:58.035Z,74.90
2022-11-26T10:39:25.574Z,74.60
2022-11-26T10:41:53.305Z,74.76
2022-11-26T10:44:33.757Z,74.59
2022-11-26T10:47:21.435Z,74.10
2022-11-26T10:49:52.027Z,72.50
2022-11-26T10:52:24.441Z,72.30
2022-11-26T10:55:08.872Z,71.96
2022-11-26T10:57:38.692Z,70.81
2022-11-26T11:00:07.844Z,69.97
2022-11-26T11:02:39.175Z,69.74
2022-11-26T11:05:10.698Z,67.22
2022-11-26T11:07:43.968Z,65.83
2022-11-26T11:10:18.752Z,68.36
2022-11-26T11:12:50.379Z,64.31
2022-11-26T11:15:24.033Z,63.94
2022-11-26T11:17:57.576Z,63.29
2022-11-26T11:20:38.009Z,62.84
2022-11-26T11:23:18.118Z,63.93
2022-11-26T11:25:48.994Z,62.47
2022-11-26T11:28:20.788Z,61.60
2022-11-26T11:31:00.291Z,58.32
2022-11-26T11:33:29.644Z,60.80
2022-11-26T11:36:05.041Z,59.51
2022-11-26T11:38:34.461Z,60.65
2022-11-26T11:41:05.927Z,57.17
2022-11-26T11:43:37.791Z,56.42
2022-11-26T11:46:19.205Z,57.41
2022-11-26T11:48:59.051Z,55.40
2022-11-26T11:51:38.863Z,57.29
2022-11-26T11:54:18.532Z,56.63
2022-11-26T11:56:52.446Z,58.90
2022-11-26T12:00:11.963Z,59.23
2022-11-26T12:03:04.869Z,59.11
2022-11-26T12:05:43.965Z,59.87
2022-11-26T12:08:27.916Z,59.36
2022-11-26T12:11:06.656Z,59.52
2022-11-26T12:13:42.740Z,60.71
2022-11-26T12:16:14.092Z,60.70
2022-11-26T12:18:47.141Z,61.41
2022-11-26T12:21:17.059Z,61.76
2022-11-26T12:23:54.363Z,61.81
2022-11-26T12:26:28.527Z,62.57
2022-11-26T12:29:03.487Z,61.70
2022-11-26T12:31:37.591Z,59.71
2022-11-26T12:34:11.328Z,61.19
2022-11-26T12:36:46.311Z,60.00
2022-11-26T12:39:23.468Z,59.26
2022-11-26T12:41:57.368Z,60.29
2022-11-26T12:44:31.317Z,60.62
2022-11-26T12:47:10.935Z,61.86
2022-11-26T12:49:46.678Z,60.43
2022-11-26T12:52:29.520Z,60.56
2022-11-26T12:55:03.233Z,60.63
2022-11-26T12:57:37.308Z,59.58
2022-11-26T13:00:11.471Z,62.05
2022-11-26T13:02:42.469Z,60.99
2022-11-26T13:05:19.419Z,60.21
2022-11-26T13:08:03.793Z,59.90
2022-11-26T13:10:42.413Z,60.59
2022-11-26T13:13:18.697Z,58.91
2022-11-26T13:15:50.996Z,61.15
2022-11-26T13:18:25.151Z,63.32
2022-11-26T13:21:05.990Z,60.74
2022-11-26T13:23:48.239Z,62.01
2022-11-26T13:26:29.876Z,58.87
2022-11-26T13:29:23.088Z,59.51
2022-11-26T13:32:13.093Z,58.47
2022-11-26T13:34:59.545Z,58.09
2022-11-26T13:37:55.997Z,58.33
2022-11-26T13:40:44.304Z,60.99
2022-11-26T13:43:38.546Z,58.85
2022-11-26T13:46:13.216Z,60.02
2022-11-26T13:48:52.787Z,59.97
2022-11-26T13:51:27.622Z,60.31
2022-11-26T13:54:02.036Z,58.35
2022-11-26T13:56:32.834Z,59.80
2022-11-26T13:59:05.598Z,59.05
2022-11-26T14:01:36.758Z,58.92
2022-11-26T14:04:07.793Z,58.87
2022-11-26T14:06:35.814Z,60.06
2022-11-26T14:09:05.607Z,59.54
2022-11-26T14:11:56.931Z,60.34
2022-11-26T14:14:37.613Z,61.59
2022-11-26T14:17:14.608Z,61.29
2022-11-26T14:20:06.357Z,60.34
2022-11-26T14:22:35.803Z,59.64
2022-11-26T14:25:06.582Z,59.92
2022-11-26T14:27:35.562Z,59.69
2022-11-26T14:30:18.109Z,59.47
2022-11-26T14:32:53.082Z,61.46
2022-11-26T14:35:30.658Z,62.06
2022-11-26T14:38:01.673Z,59.61
2022-11-26T14:40:30.925Z,62.56
2022-11-26T14:43:16.596Z,60.88
2022-11-26T14:45:47.862Z,60.74
2022-11-26T14:48:23.758Z,62.62
2022-11-26T14:50:51.950Z,62.70
2022-11-26T14:53:21.734Z,62.02
2022-11-26T14:55:51.048Z,60.91
2022-11-26T14:58:20.896Z,61.03
2022-11-26T15:01:07.720Z,62.39
2022-11-26T15:03:35.574Z,63.78
2022-11-26T15:06:03.372Z,64.47
2022-11-26T15:08:30.916Z,65.24
2022-11-26T15:11:01.835Z,64.58
2022-11-26T15:13:32.621Z,66.06
2022-11-26T15:16:01.694Z,66.57
2022-11-26T15:18:33.385Z,66.64
2022-11-26T15:21:03.137Z,67.26
2022-11-26T15:23:32.843Z,68.01
2022-11-26T15:26:01.211Z,65.70
2022-11-26T15:28:29.120Z,65.39
2022-11-26T15:30:59.015Z,64.56
2022-11-26T15:33:28.698Z,63.87
2022-11-26T15:35:57.846Z,63.41
2022-11-26T15:38:27.461Z,63.06
2022-11-26T15:40:57.508Z,63.11
2022-11-26T15:43:30.466Z,63.61
2022-11-26T15:46:00.655Z,64.34
2022-11-26T15:48:50.990Z,63.73
2022-11-26T15:51:33.784Z,63.93
2022-11-26T15:54:03.842Z,63.88
2022-11-26T15:56:35.078Z,63.71
2022-11-26T15:59:06.629Z,63.51
2022-11-26T16:01:37.374Z,63.00
2022-11-26T16:04:06.465Z,63.57
2022-11-26T16:06:37.624Z,63.27
2022-11-26T16:09:26.318Z,63.52
2022-11-26T16:12:00.162Z,63.92
2022-11-26T16:14:33.131Z,64.35
2022-11-26T16:17:07.968Z,64.36
2022-11-26T16:19:37.370Z,64.28
2022-11-26T16:22:07.259Z,64.60
2022-11-26T16:24:38.678Z,64.81
2022-11-26T16:27:24.575Z,64.78
2022-11-26T16:29:52.107Z,64.72
2022-11-26T16:32:20.114Z,64.78
2022-11-26T16:34:47.719Z,64.43
2022-11-26T16:37:21.430Z,64.88
2022-11-26T16:39:49.963Z,64.83
2022-11-26T16:42:19.213Z,65.39
2022-11-26T16:44:46.930Z,66.04
2022-11-26T16:47:19.801Z,66.84
2022-11-26T16:49:47.300Z,67.00
2022-11-26T16:52:17.718Z,66.23
2022-11-26T16:54:47.214Z,65.71
2022-11-26T16:57:17.408Z,65.67
2022-11-26T16:59:46.418Z,65.49
2022-11-26T17:02:17.411Z,66.63
2022-11-26T17:04:45.249Z,66.53
2022-11-26T17:07:14.980Z,66.73
2022-11-26T17:09:43.633Z,66.60
2022-11-26T17:12:18.021Z,66.89
2022-11-26T17:14:46.285Z,66.18
2022-11-26T17:17:20.363Z,66.76
2022-11-26T17:19:51.501Z,66.95
2022-11-26T17:22:20.163Z,67.13
2022-11-26T17:24:47.693Z,67.55
2022-11-26T17:27:18.717Z,67.24
2022-11-26T17:29:46.836Z,67.01
2022-11-26T17:32:17.001Z,67.21
2022-11-26T17:34:45.380Z,67.51
2022-11-26T17:37:15.602Z,67.48
2022-11-26T17:39:43.793Z,67.28
2022-11-26T17:42:11.293Z,67.31
2022-11-26T17:44:40.150Z,67.42
2022-11-26T17:47:17.719Z,67.55
2022-11-26T17:49:46.280Z,67.23
2022-11-26T17:52:13.789Z,67.60
2022-11-26T17:54:41.685Z,67.79
2022-11-26T17:57:11.202Z,67.96
2022-11-26T17:59:40.901Z,68.29
2022-11-26T18:02:09.317Z,68.62
2022-11-26T18:04:36.989Z,68.44
2022-11-26T18:07:07.820Z,68.86
2022-11-26T18:09:35.860Z,68.80
2022-11-26T18:12:04.471Z,68.91
2022-11-26T18:14:35.458Z,68.76
2022-11-26T18:17:05.724Z,69.07
2022-11-26T18:19:33.244Z,69.76
2022-11-26T18:22:00.767Z,69.92
2022-11-26T18:24:28.304Z,70.28
2022-11-26T18:26:56.791Z,70.47
2022-11-26T18:29:24.887Z,71.23
2022-11-26T18:31:52.831Z,71.19
2022-11-26T18:34:22.115Z,70.39
2022-11-26T18:36:53.663Z,69.46
2022-11-26T18:39:21.659Z,68.90
2022-11-26T18:41:49.198Z,68.86
2022-11-26T18:44:16.731Z,69.19
2022-11-26T18:46:44.501Z,69.22
2022-11-26T18:49:12.075Z,69.51
2022-11-26T18:51:40.932Z,68.99
2022-11-26T18:54:08.454Z,68.80
2022-11-26T18:56:36.364Z,68.71
2022-11-26T18:59:03.835Z,69.52
2022-11-26T19:01:32.849Z,69.57
2022-11-26T19:04:00.449Z,69.55
2022-11-26T19:06:30.352Z,69.56
2022-11-26T19:09:01.035Z,70.35
2022-11-26T19:11:29.126Z,70.06
2022-11-26T19:13:58.065Z,70.36
2022-11-26T19:16:26.470Z,70.16
2022-11-26T19:18:54.415Z,69.73
2022-11-26T19:21:24.115Z,69.37
2022-11-26T19:23:52.354Z,70.46
2022-11-26T19:26:22.312Z,69.95
2022-11-26T19:28:50.798Z,69.52
2022-11-26T19:31:20.156Z,69.81
2022-11-26T19:33:48.906Z,70.80
2022-11-26T19:36:17.879Z,71.35
2022-11-26T19:38:46.476Z,70.32
2022-11-26T19:41:14.011Z,70.19
2022-11-26T19:43:43.426Z,69.97
2022-11-26T19:46:12.822Z,70.17
2022-11-26T19:48:42.234Z,69.95
2022-11-26T19:51:11.264Z,69.62
2022-11-26T19:53:38.976Z,69.41
2022-11-26T19:56:11.817Z,69.48
2022-11-26T19:58:39.212Z,69.64
2022-11-26T20:01:09.941Z,70.21
2022-11-26T20:03:38.056Z,70.46
2022-11-26T20:06:07.229Z,71.58
2022-11-26T20:08:35.220Z,70.36
2022-11-26T20:11:02.870Z,70.39
2022-11-26T20:13:30.441Z,70.83
2022-11-26T20:15:58.011Z,70.45
2022-11-26T20:18:27.313Z,70.30
2022-11-26T20:20:59.119Z,69.58
2022-11-26T20:23:27.296Z,70.17
2022-11-26T20:25:55.437Z,71.49
2022-11-26T20:28:23.529Z,71.60
2022-11-26T20:30:51.724Z,71.01
2022-11-26T20:33:19.491Z,71.80
2022-11-26T20:35:48.355Z,73.18
2022-11-26T20:38:15.846Z,72.99
2022-11-26T20:40:44.069Z,72.46
2022-11-26T20:43:11.727Z,73.01
2022-11-26T20:45:39.481Z,72.11
2022-11-26T20:48:07.346Z,72.42
2022-11-26T20:50:34.893Z,71.02
2022-11-26T20:53:03.846Z,70.66
2022-11-26T20:55:31.403Z,70.36
2022-11-26T20:57:58.922Z,70.46
2022-11-26T21:00:27.791Z,72.22
2022-11-26T21:02:55.542Z,71.08
2022-11-26T21:05:23.613Z,71.00
2022-11-26T21:07:51.819Z,70.72
2022-11-26T21:10:25.070Z,71.29
2022-11-26T21:12:52.584Z,71.06
2022-11-26T21:15:20.083Z,70.70
2022-11-26T21:17:47.689Z,70.44
2022-11-26T21:20:15.726Z,70.00
2022-11-26T21:22:43.244Z,70.36
2022-11-26T21:25:10.944Z,70.46
2022-11-26T21:27:39.917Z,71.09
2022-11-26T21:30:08.672Z,71.93
2022-11-26T21:32:36.240Z,72.08
2022-11-26T21:35:03.756Z,72.01
2022-11-26T21:37:31.259Z,71.93
2022-11-26T21:39:58.784Z,71.18
2022-11-26T21:42:26.310Z,71.69
2022-11-26T21:44:55.163Z,72.25
2022-11-26T21:47:22.654Z,72.48
2022-11-26T21:49:50.214Z,71.33
2022-11-26T21:52:17.784Z,72.08
2022-11-26T21:54:45.335Z,72.27
2022-11-26T21:57:12.889Z,71.39
2022-11-26T21:59:40.737Z,70.78
2022-11-26T22:02:12.982Z,70.75
2022-11-26T22:04:40.664Z,71.02
2022-11-26T22:07:08.460Z,71.09
2022-11-26T22:09:36.700Z,71.16
2022-11-26T22:12:04.305Z,71.46
2022-11-26T22:14:31.829Z,71.68
2022-11-26T22:16:59.314Z,71.56
2022-11-26T22:19:28.179Z,72.90
2022-11-26T22:21:55.802Z,72.33
2022-11-26T22:24:23.306Z,72.20
2022-11-26T22:26:50.816Z,72.46
2022-11-26T22:29:20.121Z,72.55
2022-11-26T22:31:48.526Z,71.67
2022-11-26T22:34:18.509Z,71.08
2022-11-26T22:36:47.448Z,70.89
2022-11-26T22:39:17.375Z,70.61
2022-11-26T22:41:45.968Z,70.47
2022-11-26T22:44:14.351Z,70.96
2022-11-26T22:46:41.900Z,70.53
2022-11-26T22:49:12.834Z,70.24
2022-11-26T22:51:40.685Z,70.45
2022-11-26T22:54:12.849Z,70.20
2022-11-26T22:56:40.843Z,70.15
2022-11-26T22:59:11.781Z,70.60
2022-11-26T23:01:39.363Z,70.53
2022-11-26T23:04:09.127Z,70.50
2022-11-26T23:06:37.538Z,70.57
2022-11-26T23:09:07.250Z,70.87
2022-11-26T23:11:37.684Z,71.24
2022-11-26T23:14:07.465Z,70.86
2022-11-26T23:16:36.187Z,70.90
2022-11-26T23:19:04.749Z,71.16
2022-11-26T23:21:35.246Z,71.61
2022-11-26T23:24:02.852Z,71.32
2022-11-26T23:26:32.816Z,71.47
2022-11-26T23:29:03.297Z,72.10
2022-11-26T23:31:32.677Z,72.16
2022-11-26T23:34:00.632Z,72.56
2022-11-26T23:36:29.116Z,72.53
2022-11-26T23:38:57.239Z,72.60
2022-11-26T23:41:24.756Z,72.74
2022-11-26T23:43:52.243Z,72.93
2022-11-26T23:46:23.448Z,72.99
2022-11-26T23:48:51.884Z,72.74
2022-11-26T23:51:24.037Z,72.79
2022-11-26T23:53:53.332Z,73.02
2022-11-26T23:56:22.722Z,73.00
2022-11-26T23:58:51.191Z,73.05
